Time;durP1;ratioP1;P1;durP2;ratioP2;P2;SDS_P1;SDS_P2;PMS_P1;PMS_P2;Temp;Humidity;BMP_temperature;BMP_pressure;BME280_temperature;BME280_humidity;BME280_pressure;Samples;Min_cycle;Max_cycle;Signal;HPM_P1;HPM_P2
2023/07/26 00:01:47;;;;;;;10.25;4.72;;;16.10;99.90;;;;;;5047119;28;20033;-68
2023/07/26 00:04:13;;;;;;;8.93;4.68;;;16.10;99.90;;;;;;5044412;28;20037;-68
2023/07/26 00:06:39;;;;;;;8.57;3.53;;;16.10;99.90;;;;;;5045470;28;20030;-68
2023/07/26 00:09:08;;;;;;;9.73;3.47;;;16.10;99.90;;;;;;5023875;28;20083;-69
2023/07/26 00:11:35;;;;;;;6.63;2.55;;;16.10;99.90;;;;;;5048784;28;20041;-69
2023/07/26 00:14:03;;;;;;;6.07;3.00;;;16.00;99.90;;;;;;5042788;28;20378;-68
2023/07/26 00:16:30;;;;;;;5.25;2.20;;;15.90;99.90;;;;;;5047813;28;20026;-67
2023/07/26 00:18:56;;;;;;;5.32;2.45;;;16.00;99.90;;;;;;5039353;28;20025;-68
2023/07/26 00:21:22;;;;;;;5.43;3.38;;;15.90;99.90;;;;;;5032380;28;20021;-69
2023/07/26 00:23:48;;;;;;;7.53;2.83;;;16.00;99.90;;;;;;5041219;28;20041;-68
2023/07/26 00:26:14;;;;;;;4.93;2.90;;;16.00;99.90;;;;;;5050939;28;20039;-69
2023/07/26 00:28:39;;;;;;;4.75;2.63;;;15.90;99.90;;;;;;5041390;28;20034;-68
2023/07/26 00:31:06;;;;;;;6.72;3.17;;;15.80;99.90;;;;;;5051345;28;20037;-68
2023/07/26 00:33:31;;;;;;;3.80;2.45;;;15.70;99.90;;;;;;5035416;28;20038;-68
2023/07/26 00:35:57;;;;;;;9.10;3.70;;;15.70;99.90;;;;;;5049959;28;20028;-68
2023/07/26 00:38:23;;;;;;;6.57;3.13;;;15.60;99.90;;;;;;5036942;28;20397;-68
2023/07/26 00:40:48;;;;;;;3.80;2.03;;;15.50;99.90;;;;;;5048926;28;20033;-68
2023/07/26 00:43:14;;;;;;;7.68;2.78;;;15.50;99.90;;;;;;5037386;28;20033;-67
2023/07/26 00:45:41;;;;;;;9.13;3.22;;;15.40;99.90;;;;;;5047729;28;20166;-67
2023/07/26 00:48:09;;;;;;;7.50;2.83;;;15.40;99.90;;;;;;5038584;28;20385;-68
2023/07/26 00:50:37;;;;;;;6.43;3.40;;;15.50;99.90;;;;;;5029015;28;20071;-68
2023/07/26 00:53:04;;;;;;;5.82;3.58;;;15.60;99.90;;;;;;5021341;28;20036;-68
2023/07/26 00:55:31;;;;;;;8.45;2.83;;;15.60;99.90;;;;;;5028197;28;20030;-68
2023/07/26 00:57:57;;;;;;;8.25;3.25;;;15.60;99.90;;;;;;5040073;28;20082;-69
2023/07/26 01:00:23;;;;;;;6.50;2.95;;;15.60;99.90;;;;;;5027211;28;20041;-68
2023/07/26 01:02:48;;;;;;;7.47;3.25;;;15.60;99.90;;;;;;5027039;28;20037;-68
2023/07/26 01:05:15;;;;;;;5.15;2.65;;;15.50;99.90;;;;;;5021511;28;20040;-68
2023/07/26 01:08:14;;;;;;;7.45;4.07;;;15.50;99.90;;;;;;5020198;28;20045;-68
2023/07/26 01:10:55;;;;;;;9.25;3.83;;;15.60;99.90;;;;;;4998476;28;20033;-68
2023/07/26 01:13:38;;;;;;;6.63;3.63;;;15.50;99.90;;;;;;5034021;28;20065;-68
2023/07/26 01:16:04;;;;;;;9.95;3.83;;;15.50;99.90;;;;;;5015619;28;20037;-68
2023/07/26 01:18:30;;;;;;;10.52;4.18;;;15.50;99.90;;;;;;5028279;28;20385;-68
2023/07/26 01:20:56;;;;;;;7.45;3.47;;;15.60;99.90;;;;;;5019401;28;20025;-70
2023/07/26 01:23:21;;;;;;;8.80;4.65;;;15.60;99.90;;;;;;5010131;28;20030;-68
2023/07/26 01:25:47;;;;;;;8.35;3.67;;;15.50;99.90;;;;;;5043754;28;20029;-68
2023/07/26 01:28:13;;;;;;;7.60;4.00;;;15.60;99.90;;;;;;5037146;28;20112;-68
2023/07/26 01:30:39;;;;;;;8.38;4.53;;;15.60;99.90;;;;;;5046935;28;20108;-68
2023/07/26 01:33:09;;;;;;;8.50;4.70;;;15.60;99.90;;;;;;5025212;28;20036;-69
2023/07/26 01:35:37;;;;;;;7.28;4.22;;;15.60;99.90;;;;;;5045787;28;20777;-67
2023/07/26 01:38:05;;;;;;;7.40;4.45;;;15.70;99.90;;;;;;5026254;28;20403;-67
2023/07/26 01:40:31;;;;;;;6.00;3.42;;;15.50;99.90;;;;;;5010522;28;20036;-67
2023/07/26 01:42:57;;;;;;;17.13;4.10;;;15.50;99.90;;;;;;5013923;28;20030;-68
2023/07/26 01:45:23;;;;;;;7.10;3.97;;;15.50;99.90;;;;;;5044145;28;20044;-67
2023/07/26 01:47:50;;;;;;;10.23;3.80;;;15.50;99.90;;;;;;5039693;28;20033;-67
2023/07/26 01:50:16;;;;;;;7.75;3.70;;;15.50;99.90;;;;;;5042869;28;20451;-69
2023/07/26 01:52:41;;;;;;;8.38;4.18;;;15.50;99.90;;;;;;5026780;28;20036;-69
2023/07/26 01:55:09;;;;;;;7.05;3.28;;;15.60;99.90;;;;;;5042841;28;20132;-69
2023/07/26 01:57:34;;;;;;;8.15;3.08;;;15.60;99.90;;;;;;5027247;28;20104;-69
2023/07/26 02:00:00;;;;;;;4.82;3.30;;;15.60;99.90;;;;;;5042464;28;20124;-69
2023/07/26 02:02:26;;;;;;;7.18;3.40;;;15.50;99.90;;;;;;5038862;28;20414;-68
2023/07/26 02:04:52;;;;;;;5.45;2.97;;;15.50;99.90;;;;;;5042977;28;20025;-69
2023/07/26 02:07:17;;;;;;;5.65;3.22;;;15.50;99.90;;;;;;5026905;28;20511;-67
2023/07/26 02:09:43;;;;;;;10.48;3.80;;;15.50;99.90;;;;;;5024893;28;20064;-68
2023/07/26 02:12:09;;;;;;;7.13;3.35;;;15.50;99.90;;;;;;5010312;28;20452;-68
2023/07/26 02:14:35;;;;;;;10.77;4.07;;;15.60;99.90;;;;;;5017431;28;20029;-67
2023/07/26 02:17:01;;;;;;;7.57;3.25;;;15.60;99.90;;;;;;5013812;28;20414;-68
2023/07/26 02:19:26;;;;;;;6.72;3.38;;;15.50;99.90;;;;;;5042655;28;20387;-68
2023/07/26 02:21:52;;;;;;;6.75;3.72;;;15.50;99.90;;;;;;5038982;28;20493;-68
2023/07/26 02:24:18;;;;;;;8.02;3.35;;;15.50;99.90;;;;;;5030839;28;20068;-67
2023/07/26 02:26:43;;;;;;;7.88;3.20;;;15.50;99.90;;;;;;5026182;28;20045;-67
2023/07/26 02:29:09;;;;;;;7.68;2.42;;;15.50;99.90;;;;;;5040088;28;20040;-66
2023/07/26 02:31:35;;;;;;;7.40;3.05;;;15.60;99.90;;;;;;5043835;28;20029;-67
2023/07/26 02:34:00;;;;;;;7.50;4.05;;;15.60;99.90;;;;;;5037399;28;20033;-67
2023/07/26 02:36:26;;;;;;;4.00;2.67;;;15.60;99.90;;;;;;5045678;28;20037;-68
2023/07/26 02:38:52;;;;;;;7.05;2.92;;;15.60;99.90;;;;;;5035335;28;20465;-68
2023/07/26 02:41:17;;;;;;;5.63;2.70;;;15.60;99.90;;;;;;5029597;28;20026;-68
2023/07/26 02:43:43;;;;;;;4.28;2.63;;;15.50;99.90;;;;;;5033866;28;20037;-68
2023/07/26 02:46:09;;;;;;;4.93;2.78;;;15.50;99.90;;;;;;5049839;28;20041;-67
2023/07/26 02:48:36;;;;;;;6.25;2.55;;;15.50;99.90;;;;;;5037719;28;20033;-68
2023/07/26 02:51:01;;;;;;;5.25;2.75;;;15.40;99.90;;;;;;5031034;28;20108;-68
2023/07/26 02:53:27;;;;;;;5.18;2.70;;;15.30;99.90;;;;;;5032013;28;20613;-68
2023/07/26 02:55:53;;;;;;;4.03;2.53;;;15.30;99.90;;;;;;5047232;28;20056;-68
2023/07/26 02:58:19;;;;;;;7.65;2.97;;;15.40;99.90;;;;;;5034814;28;20389;-68
2023/07/26 03:00:44;;;;;;;5.45;2.83;;;15.20;99.90;;;;;;5045827;28;20040;-68
2023/07/26 03:03:10;;;;;;;6.18;3.25;;;15.20;99.90;;;;;;5040241;28;20025;-67
2023/07/26 03:05:37;;;;;;;4.68;2.72;;;15.20;99.90;;;;;;5044757;28;20068;-68
2023/07/26 03:08:03;;;;;;;9.13;3.97;;;15.20;99.90;;;;;;5024574;28;20040;-67
2023/07/26 03:10:28;;;;;;;3.85;2.45;;;15.30;99.90;;;;;;5042455;28;20041;-67
2023/07/26 03:12:55;;;;;;;5.38;3.13;;;15.30;99.90;;;;;;5040294;28;20112;-68
2023/07/26 03:15:22;;;;;;;11.93;3.13;;;15.40;99.90;;;;;;5036391;28;20033;-67
2023/07/26 03:17:47;;;;;;;5.10;2.33;;;15.30;99.90;;;;;;5036226;28;20052;-68
2023/07/26 03:20:13;;;;;;;5.53;3.13;;;15.30;99.90;;;;;;5045997;28;20583;-67
2023/07/26 03:22:39;;;;;;;5.35;3.10;;;15.30;99.90;;;;;;5042023;28;20451;-67
2023/07/26 03:25:05;;;;;;;7.30;3.65;;;15.20;99.90;;;;;;5045832;28;20044;-67
2023/07/26 03:27:31;;;;;;;3.33;1.92;;;15.20;99.90;;;;;;5042631;28;20112;-66
2023/07/26 03:29:56;;;;;;;8.80;2.78;;;15.20;99.90;;;;;;5027892;28;20107;-67
2023/07/26 03:32:22;;;;;;;4.68;2.33;;;15.10;99.90;;;;;;5027849;28;20109;-68
2023/07/26 03:34:48;;;;;;;5.90;2.78;;;15.10;99.90;;;;;;5030010;28;20132;-68
2023/07/26 03:37:13;;;;;;;4.63;2.17;;;15.10;99.90;;;;;;5036358;28;20488;-68
2023/07/26 03:39:39;;;;;;;5.95;3.17;;;15.00;99.90;;;;;;5024232;28;20022;-68
2023/07/26 03:42:05;;;;;;;7.93;2.83;;;14.90;99.90;;;;;;5029935;28;20509;-68
2023/07/26 03:44:31;;;;;;;5.15;2.75;;;14.90;99.90;;;;;;5027457;28;20137;-68
2023/07/26 03:46:57;;;;;;;4.82;2.67;;;14.70;99.90;;;;;;5046406;28;20374;-68
2023/07/26 03:49:23;;;;;;;6.90;2.75;;;14.70;99.90;;;;;;5044545;28;20037;-67
2023/07/26 03:51:48;;;;;;;7.35;2.63;;;14.70;99.90;;;;;;5029985;28;20087;-68
2023/07/26 03:54:14;;;;;;;6.70;2.97;;;14.70;99.90;;;;;;5044514;28;20029;-68
2023/07/26 03:56:40;;;;;;;6.07;3.30;;;14.70;99.90;;;;;;5045124;28;20115;-68
2023/07/26 03:59:06;;;;;;;12.10;2.97;;;14.70;99.90;;;;;;5009401;28;20041;-68
2023/07/26 04:01:31;;;;;;;6.40;2.15;;;14.70;99.90;;;;;;5031954;28;20085;-71
2023/07/26 04:03:57;;;;;;;5.15;2.40;;;14.60;99.90;;;;;;5038257;28;20029;-68
2023/07/26 04:06:23;;;;;;;4.20;2.42;;;14.70;99.90;;;;;;5029378;28;20029;-68
2023/07/26 04:08:49;;;;;;;5.22;2.65;;;14.70;99.90;;;;;;5044357;28;20393;-67
2023/07/26 04:11:14;;;;;;;5.25;2.50;;;14.70;99.90;;;;;;5032799;28;20037;-67
2023/07/26 04:13:40;;;;;;;16.17;3.90;;;14.70;99.90;;;;;;5064938;23;20252;-71
2023/07/26 04:16:21;;;;;;;3.63;2.28;;;14.70;99.90;;;;;;5066002;28;20039;-70
2023/07/26 04:18:47;;;;;;;3.25;1.83;;;14.60;99.90;;;;;;5043642;28;20040;-71
2023/07/26 04:21:17;;;;;;;3.25;1.77;;;14.50;99.90;;;;;;5054722;28;20033;-70
2023/07/26 04:23:46;;;;;;;1.85;1.50;;;14.50;99.90;;;;;;5029387;28;20044;-70
2023/07/26 04:26:12;;;;;;;2.20;1.45;;;14.50;99.90;;;;;;5035560;28;20119;-70
2023/07/26 04:28:38;;;;;;;5.93;1.65;;;14.60;99.90;;;;;;5030866;28;20562;-71
2023/07/26 04:31:04;;;;;;;3.55;2.00;;;14.70;99.90;;;;;;5032345;28;20492;-71
2023/07/26 04:33:30;;;;;;;7.20;2.85;;;14.70;99.90;;;;;;5023157;28;20074;-71
2023/07/26 04:35:57;;;;;;;4.13;2.10;;;14.70;99.90;;;;;;5035476;28;20033;-72
2023/07/26 04:38:24;;;;;;;2.90;1.80;;;14.70;99.90;;;;;;5001911;28;20120;-72
2023/07/26 04:40:50;;;;;;;6.95;2.72;;;14.70;99.90;;;;;;5030855;28;20793;-72
2023/07/26 04:43:20;;;;;;;3.15;1.77;;;14.70;99.90;;;;;;5045470;28;20107;-72
2023/07/26 04:45:51;;;;;;;5.88;1.88;;;14.70;99.90;;;;;;5052921;28;20032;-72
2023/07/26 04:48:19;;;;;;;4.32;1.90;;;14.80;99.90;;;;;;5031306;28;20043;-71
2023/07/26 04:50:46;;;;;;;4.55;2.90;;;14.90;99.90;;;;;;5034943;28;20150;-70
2023/07/26 04:53:12;;;;;;;3.95;1.95;;;14.90;99.90;;;;;;5030158;28;20030;-71
2023/07/26 04:55:43;;;;;;;3.97;2.40;;;14.90;99.90;;;;;;5047163;28;20035;-71
2023/07/26 04:58:09;;;;;;;;;;;15.00;99.90;;;;;;5039286;28;20038;-72
2023/07/26 05:00:38;;;;;;;6.18;2.00;;;15.10;99.90;;;;;;5044103;28;19920;-72
2023/07/26 05:03:05;;;;;;;5.35;2.60;;;15.00;99.90;;;;;;5014619;28;20037;-71
2023/07/26 05:05:32;;;;;;;3.80;2.40;;;15.00;99.90;;;;;;5028791;28;20451;-71
2023/07/26 05:07:58;;;;;;;4.75;2.30;;;14.90;99.90;;;;;;5010879;28;22269;-70
2023/07/26 05:10:25;;;;;;;7.85;2.45;;;15.00;99.90;;;;;;5026666;28;20032;-71
2023/07/26 05:12:52;;;;;;;6.68;2.30;;;15.00;99.90;;;;;;5034843;28;20037;-71
2023/07/26 05:15:18;;;;;;;4.38;2.58;;;15.00;99.90;;;;;;5042493;28;20029;-70
2023/07/26 05:17:44;;;;;;;6.18;1.90;;;14.90;99.90;;;;;;5017958;28;20388;-70
2023/07/26 05:20:11;;;;;;;5.07;2.15;;;14.80;99.90;;;;;;5047145;28;20033;-70
2023/07/26 05:22:37;;;;;;;5.03;2.33;;;14.70;99.90;;;;;;5050752;28;20116;-70
2023/07/26 05:25:03;;;;;;;2.25;1.50;;;14.70;99.90;;;;;;5031035;28;20429;-70
2023/07/26 05:27:29;;;;;;;2.72;1.60;;;14.80;99.90;;;;;;5048019;28;20083;-69
2023/07/26 05:29:57;;;;;;;3.42;2.20;;;14.90;99.90;;;;;;5025085;28;20030;-69
2023/07/26 05:32:24;;;;;;;3.17;1.55;;;14.80;99.90;;;;;;5029980;28;20029;-69
2023/07/26 05:34:56;;;;;;;2.78;1.88;;;14.80;99.90;;;;;;5020508;28;20026;-70
2023/07/26 05:37:23;;;;;;;2.95;2.03;;;14.80;99.90;;;;;;5044098;28;20024;-70
2023/07/26 05:39:49;;;;;;;7.20;2.33;;;14.80;99.90;;;;;;5047350;28;20021;-70
2023/07/26 05:42:16;;;;;;;3.35;1.75;;;14.80;99.90;;;;;;5017483;28;20090;-71
2023/07/26 05:44:42;;;;;;;3.33;1.88;;;14.80;99.90;;;;;;5031575;28;20037;-68
2023/07/26 05:47:10;;;;;;;3.25;2.03;;;15.00;99.90;;;;;;5024277;28;20033;-68
2023/07/26 05:49:36;;;;;;;11.30;2.70;;;14.90;99.90;;;;;;5047858;28;20489;-66
2023/07/26 05:52:03;;;;;;;3.47;2.30;;;14.90;99.90;;;;;;5033252;28;20040;-68
2023/07/26 05:54:28;;;;;;;3.92;2.10;;;15.00;99.90;;;;;;5030613;28;20059;-67
2023/07/26 05:56:54;;;;;;;5.85;2.72;;;14.90;99.90;;;;;;5051116;28;20032;-67
2023/07/26 05:59:20;;;;;;;4.72;2.13;;;14.90;99.90;;;;;;5019651;28;20029;-68
2023/07/26 06:01:46;;;;;;;5.00;2.10;;;14.90;99.90;;;;;;4997465;28;20500;-67
2023/07/26 06:04:12;;;;;;;3.47;2.00;;;15.00;99.90;;;;;;5046110;28;21341;-68
2023/07/26 06:06:37;;;;;;;3.50;2.25;;;15.00;99.90;;;;;;5051313;28;20587;-68
2023/07/26 06:09:05;;;;;;;3.97;1.92;;;14.90;99.90;;;;;;5035809;28;20048;-69
2023/07/26 06:11:30;;;;;;;2.95;1.73;;;14.90;99.90;;;;;;5023035;28;20056;-69
2023/07/26 06:13:56;;;;;;;5.20;2.65;;;15.00;99.90;;;;;;5013576;28;20766;-69
2023/07/26 06:16:22;;;;;;;6.70;2.20;;;14.90;99.90;;;;;;5032416;28;20393;-69
2023/07/26 06:18:49;;;;;;;4.35;2.53;;;14.90;99.90;;;;;;5020178;28;20034;-70
2023/07/26 06:21:17;;;;;;;5.40;2.13;;;14.90;99.90;;;;;;5050259;28;20013;-69
2023/07/26 06:23:43;;;;;;;5.93;1.92;;;14.80;99.90;;;;;;5007169;28;20115;-69
2023/07/26 06:26:10;;;;;;;3.28;2.05;;;14.80;99.90;;;;;;5047199;28;20128;-69
2023/07/26 06:28:35;;;;;;;3.80;1.75;;;14.80;99.90;;;;;;5047737;28;20035;-69
2023/07/26 06:31:01;;;;;;;3.33;2.28;;;14.80;99.90;;;;;;5030385;28;20029;-70
2023/07/26 06:33:27;;;;;;;2.80;1.48;;;14.80;99.90;;;;;;5033793;28;20025;-66
2023/07/26 06:35:54;;;;;;;2.75;1.35;;;14.70;99.90;;;;;;5050814;28;20037;-66
2023/07/26 06:38:20;;;;;;;1.90;1.25;;;14.70;99.90;;;;;;5030901;28;20040;-66
2023/07/26 06:40:47;;;;;;;2.33;1.55;;;14.60;99.90;;;;;;5030301;28;20061;-66
2023/07/26 06:43:13;;;;;;;4.22;1.70;;;14.60;99.90;;;;;;5020754;28;20037;-66
2023/07/26 06:45:38;;;;;;;3.97;1.63;;;14.60;99.90;;;;;;5047330;28;20440;-66
2023/07/26 06:48:06;;;;;;;6.10;1.40;;;14.60;99.90;;;;;;5046674;28;20041;-66
2023/07/26 06:50:32;;;;;;;1.73;1.33;;;14.60;99.90;;;;;;5050547;28;20067;-65
2023/07/26 06:52:57;;;;;;;4.68;1.55;;;14.60;99.90;;;;;;5047087;28;20091;-66
2023/07/26 06:55:23;;;;;;;3.38;2.53;;;14.40;99.90;;;;;;5050599;28;20029;-65
2023/07/26 06:57:51;;;;;;;6.70;2.40;;;14.50;99.90;;;;;;5030657;28;20397;-65
2023/07/26 07:00:17;;;;;;;2.95;1.20;;;14.50;99.90;;;;;;5033049;28;20021;-65
2023/07/26 07:02:43;;;;;;;3.80;1.98;;;14.50;99.90;;;;;;5012174;28;20044;-66
2023/07/26 07:05:08;;;;;;;5.28;2.00;;;14.30;99.90;;;;;;5034165;28;20444;-66
2023/07/26 07:07:34;;;;;;;2.95;1.70;;;14.30;99.90;;;;;;5032538;28;20033;-66
2023/07/26 07:10:00;;;;;;;2.90;1.92;;;14.40;99.90;;;;;;5046930;28;20030;-65
2023/07/26 07:12:26;;;;;;;3.20;1.58;;;14.50;99.90;;;;;;5015757;28;20036;-66
2023/07/26 07:14:53;;;;;;;4.90;1.52;;;14.50;99.90;;;;;;5047665;28;20033;-66
2023/07/26 07:17:19;;;;;;;2.38;1.50;;;14.40;99.90;;;;;;5010886;28;20018;-66
2023/07/26 07:19:45;;;;;;;3.05;1.23;;;14.50;99.90;;;;;;5041298;28;20078;-66
2023/07/26 07:22:11;;;;;;;3.20;1.55;;;14.50;99.90;;;;;;5044620;28;20488;-66
2023/07/26 07:24:38;;;;;;;11.88;2.00;;;14.60;99.90;;;;;;5038653;28;20029;-66
2023/07/26 07:27:05;;;;;;;3.28;1.60;;;14.80;99.90;;;;;;5031587;28;20481;-65
2023/07/26 07:29:32;;;;;;;3.00;1.80;;;14.70;99.90;;;;;;5016766;28;20041;-66
2023/07/26 07:31:58;;;;;;;4.10;2.17;;;14.70;99.90;;;;;;5039299;28;20678;-66
2023/07/26 07:34:24;;;;;;;27.70;12.48;;;15.00;99.90;;;;;;5047008;28;20120;-66
2023/07/26 07:36:50;;;;;;;4.65;2.33;;;15.20;99.90;;;;;;5021305;28;20120;-65
2023/07/26 07:39:16;;;;;;;2.25;1.70;;;15.20;99.90;;;;;;5042284;28;20032;-65
2023/07/26 07:41:42;;;;;;;10.48;4.93;;;15.20;99.90;;;;;;5049914;28;20025;-66
2023/07/26 07:44:08;;;;;;;2.47;1.67;;;15.20;99.90;;;;;;5046506;28;20104;-65
2023/07/26 07:46:34;;;;;;;1.88;1.27;;;15.40;99.90;;;;;;5050181;28;20106;-65
2023/07/26 07:49:00;;;;;;;4.03;2.15;;;15.40;99.90;;;;;;5046706;28;20125;-65
2023/07/26 07:51:25;;;;;;;2.05;1.30;;;15.50;99.90;;;;;;5050026;28;20040;-65
2023/07/26 07:53:51;;;;;;;3.92;2.03;;;15.60;99.90;;;;;;5029565;28;20037;-65
2023/07/26 07:56:17;;;;;;;2.72;1.67;;;15.70;99.90;;;;;;5033558;28;20029;-65
2023/07/26 07:58:43;;;;;;;2.80;1.60;;;15.50;99.90;;;;;;5030649;28;20396;-65
2023/07/26 08:01:09;;;;;;;8.35;2.47;;;15.60;99.90;;;;;;5046863;28;20044;-65
2023/07/26 08:03:34;;;;;;;3.05;1.58;;;15.30;99.90;;;;;;5033652;28;20450;-65
2023/07/26 08:06:00;;;;;;;2.38;1.52;;;15.50;99.90;;;;;;5050988;28;20459;-66
2023/07/26 08:08:26;;;;;;;6.30;1.60;;;15.60;99.90;;;;;;5047026;28;20105;-65
2023/07/26 08:10:52;;;;;;;4.80;1.55;;;15.60;99.90;;;;;;5049931;28;20049;-65
2023/07/26 08:13:17;;;;;;;2.03;1.45;;;15.70;99.90;;;;;;5027110;28;20029;-66
2023/07/26 08:15:43;;;;;;;4.60;2.10;;;15.90;99.90;;;;;;5029117;28;20025;-66
2023/07/26 08:18:09;;;;;;;5.20;2.22;;;16.00;99.90;;;;;;5050433;28;20464;-65
2023/07/26 08:20:36;;;;;;;3.58;1.80;;;16.00;99.90;;;;;;5053160;28;20056;-66
2023/07/26 08:23:03;;;;;;;2.83;1.50;;;16.10;99.90;;;;;;5046780;28;20061;-66
2023/07/26 08:25:29;;;;;;;2.10;1.33;;;16.10;99.90;;;;;;5015058;28;20068;-66
2023/07/26 08:27:55;;;;;;;2.38;1.20;;;16.10;99.90;;;;;;5015524;28;20056;-66
2023/07/26 08:30:21;;;;;;;3.03;1.67;;;16.30;99.90;;;;;;5019242;28;20040;-67
2023/07/26 08:32:47;;;;;;;3.03;1.83;;;16.30;99.90;;;;;;5031101;28;20061;-67
2023/07/26 08:35:13;;;;;;;1.92;1.55;;;16.10;99.90;;;;;;5051655;28;20471;-65
2023/07/26 08:37:39;;;;;;;3.58;1.58;;;16.10;99.90;;;;;;5035449;28;20480;-65
2023/07/26 08:40:06;;;;;;;5.75;1.50;;;16.20;99.90;;;;;;5037416;28;20064;-65
2023/07/26 08:42:32;;;;;;;3.20;1.27;;;16.50;99.90;;;;;;5027765;28;20021;-65
2023/07/26 08:44:59;;;;;;;8.07;3.80;;;16.70;99.90;;;;;;5037885;28;20030;-67
2023/07/26 08:47:27;;;;;;;11.70;1.52;;;16.80;99.90;;;;;;5018147;28;20102;-65
2023/07/26 08:49:53;;;;;;;4.75;1.17;;;17.00;99.90;;;;;;5030435;28;20392;-66
2023/07/26 08:52:19;;;;;;;2.78;1.52;;;17.20;99.90;;;;;;5013144;28;20041;-65
2023/07/26 08:54:47;;;;;;;3.58;1.75;;;17.30;99.90;;;;;;5029872;28;20033;-66
2023/07/26 08:57:14;;;;;;;3.30;1.63;;;17.50;99.90;;;;;;5034758;28;20048;-66
2023/07/26 08:59:39;;;;;;;2.70;1.58;;;17.60;99.90;;;;;;5032772;28;20025;-67
2023/07/26 09:02:09;;;;;;;3.65;1.65;;;17.70;99.90;;;;;;5041037;28;20034;-66
2023/07/26 09:04:35;;;;;;;2.15;1.30;;;17.90;99.90;;;;;;5045172;28;20060;-66
2023/07/26 09:07:05;;;;;;;4.18;1.50;;;18.00;99.90;;;;;;5034720;28;20045;-67
2023/07/26 09:09:33;;;;;;;1.80;1.30;;;18.10;99.90;;;;;;5032286;28;20182;-68
2023/07/26 09:12:00;;;;;;;3.85;1.15;;;18.00;99.90;;;;;;5034275;28;20393;-67
2023/07/26 09:14:31;;;;;;;2.97;1.80;;;18.10;99.90;;;;;;5050091;28;20036;-67
2023/07/26 09:17:03;;;;;;;3.03;1.65;;;18.20;99.90;;;;;;5034502;28;20484;-66
2023/07/26 09:19:30;;;;;;;2.53;1.42;;;18.10;99.90;;;;;;5015006;28;20037;-66
2023/07/26 09:21:59;;;;;;;4.35;1.58;;;18.20;99.90;;;;;;5034438;28;20028;-66
2023/07/26 09:24:37;;;;;;;7.15;1.70;;;18.40;99.90;;;;;;5032097;28;20029;-66
2023/07/26 09:27:06;;;;;;;3.40;1.38;;;18.10;99.90;;;;;;5052210;28;20056;-67
2023/07/26 09:29:34;;;;;;;3.08;1.13;;;18.10;99.90;;;;;;5048634;28;20078;-66
2023/07/26 09:32:00;;;;;;;3.40;2.15;;;18.20;99.90;;;;;;5030622;28;20116;-67
2023/07/26 09:34:26;;;;;;;1.40;0.77;;;18.10;99.90;;;;;;5015941;28;20033;-67
2023/07/26 09:36:53;;;;;;;11.20;1.63;;;17.90;99.90;;;;;;5014157;28;20025;-66
2023/07/26 09:39:21;;;;;;;3.67;1.30;;;17.80;99.90;;;;;;5020000;28;20432;-67
2023/07/26 09:41:49;;;;;;;2.17;1.33;;;17.80;99.90;;;;;;5008849;28;20036;-67
2023/07/26 09:44:21;;;;;;;8.95;1.48;;;17.90;99.90;;;;;;5032480;28;20028;-67
2023/07/26 09:46:53;;;;;;;2.10;1.13;;;18.10;99.90;;;;;;5031042;28;20036;-67
2023/07/26 09:49:27;;;;;;;5.13;2.50;;;18.30;99.90;;;;;;5013306;28;20029;-66
2023/07/26 09:51:57;;;;;;;2.63;1.15;;;18.50;99.90;;;;;;5027043;28;20033;-67
2023/07/26 09:54:31;;;;;;;3.35;1.20;;;18.70;99.90;;;;;;5034009;28;20099;-67
2023/07/26 09:56:58;;;;;;;2.75;1.10;;;18.50;99.90;;;;;;5010002;28;20057;-68
2023/07/26 09:59:27;;;;;;;3.78;1.35;;;18.50;99.90;;;;;;5051437;28;20521;-67
2023/07/26 10:01:56;;;;;;;2.08;1.02;;;18.40;99.90;;;;;;5020841;28;20645;-67
2023/07/26 10:04:44;;;;;;;2.33;0.77;;;18.60;99.90;;;;;;5013187;28;20033;-68
2023/07/26 10:07:13;;;;;;;2.17;0.85;;;18.50;99.90;;;;;;5040558;28;21105;-70
2023/07/26 10:09:44;;;;;;;1.85;0.82;;;18.90;99.90;;;;;;5032198;28;20065;-66
2023/07/26 10:12:10;;;;;;;2.03;1.10;;;19.10;99.90;;;;;;5048159;23;20520;-61
2023/07/26 10:14:38;;;;;;;1.63;1.00;;;19.10;99.90;;;;;;5024163;28;20121;-60
2023/07/26 10:17:04;;;;;;;4.32;1.10;;;19.20;99.90;;;;;;5004924;28;20080;-60
2023/07/26 10:19:31;;;;;;;2.75;1.20;;;19.40;99.90;;;;;;5016388;28;20017;-62
2023/07/26 10:21:57;;;;;;;2.38;1.60;;;19.50;99.90;;;;;;5016346;28;20037;-61
2023/07/26 10:24:25;;;;;;;2.38;1.10;;;19.60;99.90;;;;;;4985919;28;20034;-62
2023/07/26 10:26:53;;;;;;;1.35;0.88;;;19.50;99.90;;;;;;5007728;28;20029;-63
2023/07/26 10:29:19;;;;;;;2.00;1.17;;;19.50;99.90;;;;;;5006470;28;20618;-61
2023/07/26 10:31:46;;;;;;;2.38;1.17;;;19.50;99.90;;;;;;4979350;28;20574;-60
2023/07/26 10:34:20;;;;;;;2.35;1.00;;;19.60;99.90;;;;;;5014439;28;20099;-62
2023/07/26 10:36:46;;;;;;;2.85;1.48;;;19.40;99.90;;;;;;4978295;28;20029;-61
2023/07/26 10:39:14;;;;;;;1.38;0.95;;;19.60;99.90;;;;;;5008790;28;20285;-61
2023/07/26 10:41:50;;;;;;;4.10;1.38;;;19.90;99.90;;;;;;4992777;28;20050;-61
2023/07/26 10:44:16;;;;;;;3.33;1.17;;;20.10;99.90;;;;;;4996392;28;20030;-61
2023/07/26 10:47:02;;;;;;;3.03;1.13;;;20.20;99.90;;;;;;5001781;28;20040;-62
2023/07/26 10:49:33;;;;;;;4.63;1.10;;;20.00;99.90;;;;;;5019158;28;20056;-62
2023/07/26 10:52:05;;;;;;;3.33;1.35;;;19.80;99.90;;;;;;5022947;28;20509;-62
2023/07/26 10:54:41;;;;;;;1.92;1.08;;;20.00;99.90;;;;;;5024148;28;20076;-62
2023/07/26 10:57:21;;;;;;;1.88;1.08;;;20.00;99.90;;;;;;5024530;28;20041;-62
2023/07/26 11:00:00;;;;;;;3.58;1.60;;;19.60;99.90;;;;;;5026297;28;20065;-62
2023/07/26 11:02:43;;;;;;;1.80;1.05;;;19.40;99.90;;;;;;5023443;28;20034;-62
2023/07/26 11:05:20;;;;;;;3.58;1.15;;;19.60;99.90;;;;;;5029158;28;20481;-60
2023/07/26 11:08:01;;;;;;;2.10;1.33;;;19.80;99.90;;;;;;5001178;28;20048;-61
2023/07/26 11:10:38;;;;;;;2.65;1.35;;;19.80;99.90;;;;;;4991148;28;20035;-60
2023/07/26 11:13:17;;;;;;;4.03;1.30;;;20.00;99.90;;;;;;5018085;28;20497;-60
2023/07/26 11:15:46;;;;;;;5.63;1.73;;;19.80;99.90;;;;;;5026287;28;20145;-62
2023/07/26 11:18:14;;;;;;;4.72;1.55;;;19.90;99.90;;;;;;5021175;28;20030;-61
2023/07/26 11:20:48;;;;;;;2.28;0.95;;;19.90;98.60;;;;;;5027724;28;20413;-62
2023/07/26 11:23:28;;;;;;;4.45;1.58;;;19.80;98.50;;;;;;5020772;28;20029;-62
2023/07/26 11:25:57;;;;;;;3.90;1.10;;;19.70;96.10;;;;;;5021169;28;20044;-62
2023/07/26 11:28:27;;;;;;;1.63;0.82;;;19.50;96.30;;;;;;5009975;28;20042;-63
2023/07/26 11:30:55;;;;;;;3.35;1.00;;;19.20;94.80;;;;;;5003661;28;20056;-62
2023/07/26 11:33:35;;;;;;;0.47;0.40;;;18.90;96.90;;;;;;5001854;28;20489;-62
2023/07/26 11:36:07;;;;;;;0.65;0.47;;;18.70;97.50;;;;;;5025701;28;20049;-62
2023/07/26 11:38:34;;;;;;;1.88;0.52;;;18.50;96.40;;;;;;5004695;28;20450;-63
2023/07/26 11:41:00;;;;;;;2.28;0.85;;;18.60;98.70;;;;;;5023082;28;20056;-62
2023/07/26 11:43:27;;;;;;;2.92;1.00;;;18.80;97.90;;;;;;5020989;28;20411;-61
2023/07/26 11:45:55;;;;;;;2.08;1.02;;;19.00;94.90;;;;;;5005150;28;20037;-61
2023/07/26 11:48:21;;;;;;;0.95;0.70;;;19.50;95.10;;;;;;5012186;28;20061;-62
2023/07/26 11:50:47;;;;;;;1.58;0.60;;;20.10;92.10;;;;;;5004585;28;20080;-62
2023/07/26 11:53:15;;;;;;;0.95;0.43;;;20.70;88.30;;;;;;5012536;28;20033;-62
2023/07/26 11:55:43;;;;;;;2.72;0.90;;;21.00;81.10;;;;;;5021942;28;20042;-62
2023/07/26 11:58:11;;;;;;;2.08;0.90;;;21.20;80.10;;;;;;5030316;28;20108;-62
2023/07/26 12:00:43;;;;;;;3.25;0.88;;;21.80;82.90;;;;;;5021899;28;20049;-63
2023/07/26 12:03:09;;;;;;;1.08;0.60;;;21.90;83.50;;;;;;5028783;28;20026;-62
2023/07/26 12:05:35;;;;;;;1.73;0.90;;;21.90;83.70;;;;;;5021777;28;20029;-61
2023/07/26 12:08:05;;;;;;;1.80;0.70;;;21.30;87.40;;;;;;5023789;28;20026;-61
2023/07/26 12:10:35;;;;;;;2.10;1.17;;;21.10;90.60;;;;;;5014148;28;20029;-61
2023/07/26 12:13:12;;;;;;;1.30;0.80;;;20.30;91.30;;;;;;4997929;28;20534;-60
2023/07/26 12:15:50;;;;;;;2.58;0.57;;;20.00;92.10;;;;;;5000083;28;20076;-63
2023/07/26 12:18:17;;;;;;;2.67;1.23;;;19.60;93.90;;;;;;5027999;28;20558;-65
2023/07/26 12:21:03;;;;;;;2.33;0.98;;;19.40;99.90;;;;;;4992567;28;20029;-64
2023/07/26 12:23:51;;;;;;;2.22;1.20;;;19.00;99.90;;;;;;4993569;28;20030;-63
2023/07/26 12:26:29;;;;;;;1.55;0.93;;;18.80;99.90;;;;;;5013478;28;20721;-63
2023/07/26 12:28:55;;;;;;;3.10;1.10;;;18.80;99.90;;;;;;4996342;28;20480;-63
2023/07/26 12:31:27;;;;;;;3.38;1.05;;;18.80;99.90;;;;;;5025934;28;20504;-63
2023/07/26 12:34:13;;;;;;;3.20;1.67;;;18.90;99.90;;;;;;4990572;28;20037;-63
2023/07/26 12:36:43;;;;;;;1.77;0.82;;;19.20;99.90;;;;;;5007338;28;20389;-64
2023/07/26 12:39:15;;;;;;;3.60;1.20;;;19.70;99.90;;;;;;5024670;28;20030;-64
2023/07/26 12:41:43;;;;;;;2.97;0.93;;;19.70;99.90;;;;;;5007470;28;20049;-63
2023/07/26 12:44:09;;;;;;;2.63;1.33;;;20.10;99.90;;;;;;5023673;28;20026;-63
2023/07/26 12:46:37;;;;;;;2.88;1.30;;;20.80;99.80;;;;;;5024198;28;20029;-63
2023/07/26 12:49:04;;;;;;;2.65;1.10;;;21.20;95.80;;;;;;5024679;28;20112;-65